Terminal Aerodrome Forecast
Issued by NWS Atlanta, GA

Current Version | Previous Version | Text Only | Print | Product List | Glossary On
Versions: 1 2 3 4 5 6 7 8 9 10 11 12 13 14 15 16
000
FTUS42 KFFC 020525
TAFMCN
TAF
KMCN 020525Z 0206/0306 00000KT 1/2SM -DZ FG VV002
     FM021000 VRB03KT 1SM -DZ OVC004
     FM021500 22004KT 4SM -DZ OVC007
     FM021800 30005KT P6SM OVC012
     FM022200 32003KT P6SM OVC025
     FM030200 00000KT P6SM OVC015=

USA.gov is the U.S. government's official web portal to all federal, state and local government web resources and services.